الصفحة الرئيسية
METAR-TAF:

METAR-TAF

مطار :

مغنيتاغورسك, روسيا

دائرة عرض: 53-23-36N, خط طول: 058-45-24E, ارتفاع: 436 متر

مراقبة الطقس الحالي

تاريخ ووقت الإصدار 25 دقيقة قبل الساعة 15:00UTC
ريح 4 عقدة من الشرق/الشمال الشرقي
درجة الحرارة 18°درجة مئوية
الرطوبة 73%
ضغط 1005 hPa
الرؤية 10 كم أو أكثر
غيوم مفككة على ارتفاع 4000 قدم, مزنة ركامية.

METAR: USCM 241500Z 06002MPS 9999 BKN040CB 18/13 Q1005 R36/090060 NOSIG RMK QFE716

زمن: 20:25 (15:25 UTC)

توقعات

تاريخ ووقت الإصدار 1ساعة و 30 دقيقة قبل الساعة 13:55UTC
التوقعات صالحة من24 الساعة 15 UTC إلى 24 الساعة 24 UTC
ريح 6 عقدة من الشمال الشرقي تتزايد حتى 25 عقدة
الرؤية: 6000 متر
غيوم مفككة على ارتفاع 3000 قدم, مزنة ركامية.
مؤقت
من 24 الساعة 15 UTC إلى 24 الساعة 24 UTC
غيوم مفككة على ارتفاع 1600 قدم, مزنة ركامية.
عاصفة رعدية, مطر خفيف,

TAF: USCM 241355Z 2415/2424 05003G13MPS 6000 BKN030CB TEMPO 2415/2424 -TSRA BKN016CB

أرصاد الطقس والتوقعات من أكثر من 4000 مطار (تقارير الطقس للمطار METAR والتنبؤ بالطقس بالمطارTAF).

المحطات المتاحة هي النقط الصفراء والحمراء على الخريطة.

حرك المؤشر فوق النقطة لمعرفة اسم المحطة.

ثم انقر لمعرفة أرصاد وتوقعات الطقس.

لتغيير الخارطة: اضغط على الأزرار الخضراء مع رمز الصليب الأسود للتكبير. على الزر الأخضر مع شرطة للتصغير، أو على الأسهم الخضراء للخرائط المجاورة.


METAR-TAF: